createdAt,value
2023-03-05T00:01:23.063Z,61.57
2023-03-05T00:03:52.524Z,61.47
2023-03-05T00:06:20.941Z,60.97
2023-03-05T00:08:49.150Z,61.32
2023-03-05T00:11:16.875Z,61.02
2023-03-05T00:13:44.180Z,61.17
2023-03-05T00:16:14.594Z,61.37
2023-03-05T00:18:42.244Z,61.51
2023-03-05T00:21:25.523Z,61.59
2023-03-05T00:23:54.015Z,61.06
2023-03-05T00:26:23.448Z,61.27
2023-03-05T00:28:52.002Z,61.33
2023-03-05T00:31:22.265Z,61.15
2023-03-05T00:34:02.583Z,62.03
2023-03-05T00:36:30.090Z,61.29
2023-03-05T00:38:57.530Z,61.39
2023-03-05T00:41:24.733Z,61.26
2023-03-05T00:43:51.744Z,61.01
2023-03-05T00:46:18.956Z,60.82
2023-03-05T00:48:46.099Z,61.27
2023-03-05T00:51:13.502Z,60.86
2023-03-05T00:53:40.484Z,61.38
2023-03-05T00:56:07.698Z,60.56
2023-03-05T00:58:34.757Z,60.70
2023-03-05T01:01:03.000Z,60.68
2023-03-05T01:03:31.695Z,60.58
2023-03-05T01:05:59.344Z,60.59
2023-03-05T01:08:27.203Z,60.60
2023-03-05T01:10:54.176Z,60.82
2023-03-05T01:13:21.684Z,60.46
2023-03-05T01:15:51.092Z,60.72
2023-03-05T01:18:19.766Z,61.00
2023-03-05T01:20:47.496Z,61.78
2023-03-05T01:23:15.178Z,61.21
2023-03-05T01:25:42.339Z,60.96
2023-03-05T01:28:09.453Z,61.08
2023-03-05T01:30:36.762Z,60.73
2023-03-05T01:33:04.210Z,61.05
2023-03-05T01:35:31.292Z,60.85
2023-03-05T01:37:58.252Z,61.72
2023-03-05T01:40:27.476Z,60.76
2023-03-05T01:43:20.259Z,61.16
2023-03-05T01:46:11.986Z,60.71
2023-03-05T01:48:40.909Z,60.87
2023-03-05T01:51:08.322Z,60.87
2023-03-05T01:53:35.322Z,61.17
2023-03-05T01:56:02.440Z,61.30
2023-03-05T01:58:29.843Z,61.11
2023-03-05T02:00:56.915Z,61.47
2023-03-05T02:03:25.425Z,61.56
2023-03-05T02:05:52.388Z,61.41
2023-03-05T02:08:21.863Z,61.13
2023-03-05T02:10:56.648Z,60.98
2023-03-05T02:13:27.942Z,60.73
2023-03-05T02:15:58.419Z,60.58
2023-03-05T02:18:25.527Z,61.00
2023-03-05T02:20:58.654Z,60.96
2023-03-05T02:23:29.445Z,60.75
2023-03-05T02:25:57.230Z,60.62
2023-03-05T02:28:47.099Z,61.20
2023-03-05T02:31:17.446Z,60.84
2023-03-05T02:33:45.107Z,60.88
2023-03-05T02:36:12.408Z,60.90
2023-03-05T02:38:42.973Z,60.73
2023-03-05T02:41:10.545Z,60.54
2023-03-05T02:43:38.680Z,60.61
2023-03-05T02:46:06.174Z,60.49
2023-03-05T02:48:33.390Z,60.88
2023-03-05T02:51:02.861Z,60.46
2023-03-05T02:53:29.938Z,60.68
2023-03-05T02:55:56.971Z,60.59
2023-03-05T02:58:24.133Z,60.54
2023-03-05T03:00:51.082Z,60.64
2023-03-05T03:03:18.154Z,60.65
2023-03-05T03:05:45.237Z,60.55
2023-03-05T03:08:12.254Z,60.12
2023-03-05T03:10:39.272Z,60.38
2023-03-05T03:13:06.338Z,60.61
2023-03-05T03:15:33.403Z,60.39
2023-03-05T03:18:00.735Z,60.63
2023-03-05T03:20:28.134Z,60.34
2023-03-05T03:22:55.364Z,60.59
2023-03-05T03:25:23.339Z,60.29
2023-03-05T03:27:50.336Z,60.40
2023-03-05T03:30:17.533Z,60.56
2023-03-05T03:32:44.980Z,60.27
2023-03-05T03:35:12.984Z,60.42
2023-03-05T03:37:40.508Z,60.59
2023-03-05T03:40:08.365Z,60.20
2023-03-05T03:42:35.350Z,60.74
2023-03-05T03:45:02.610Z,60.80
2023-03-05T03:47:31.556Z,60.79
2023-03-05T03:49:59.206Z,60.88
2023-03-05T03:52:26.728Z,60.71
2023-03-05T03:54:55.842Z,60.16
2023-03-05T03:57:23.006Z,60.70
2023-03-05T03:59:51.130Z,60.48
2023-03-05T04:02:18.346Z,60.14
2023-03-05T04:04:45.397Z,60.58
2023-03-05T04:07:12.741Z,60.48
2023-03-05T04:09:40.016Z,60.25
2023-03-05T04:12:07.321Z,60.05
2023-03-05T04:14:34.534Z,60.65
2023-03-05T04:17:01.609Z,60.23
2023-03-05T04:19:30.919Z,60.11
2023-03-05T04:21:59.237Z,60.51
2023-03-05T04:24:26.495Z,60.39
2023-03-05T04:26:53.596Z,60.02
2023-03-05T04:29:21.097Z,59.86
2023-03-05T04:31:48.170Z,59.89
2023-03-05T04:34:15.194Z,60.08
2023-03-05T04:36:42.255Z,59.77
2023-03-05T04:39:09.281Z,59.62
2023-03-05T04:41:36.500Z,59.58
2023-03-05T04:44:03.566Z,59.85
2023-03-05T04:46:30.728Z,59.83
2023-03-05T04:48:58.374Z,59.32
2023-03-05T04:51:25.436Z,59.70
2023-03-05T04:53:52.357Z,59.25
2023-03-05T04:56:19.362Z,59.19
2023-03-05T04:58:46.345Z,59.05
2023-03-05T05:01:13.710Z,59.01
2023-03-05T05:03:40.938Z,58.74
2023-03-05T05:06:08.294Z,58.79
2023-03-05T05:08:35.383Z,58.59
2023-03-05T05:11:08.140Z,58.60
2023-03-05T05:13:35.638Z,58.04
2023-03-05T05:16:06.110Z,58.03
2023-03-05T05:18:33.280Z,57.57
2023-03-05T05:21:00.305Z,57.76
2023-03-05T05:23:27.989Z,57.52
2023-03-05T05:26:00.432Z,57.49
2023-03-05T05:28:27.939Z,57.17
2023-03-05T05:30:55.700Z,56.66
2023-03-05T05:33:23.462Z,56.29
2023-03-05T05:35:50.600Z,56.07
2023-03-05T05:38:17.756Z,55.92
2023-03-05T05:40:44.784Z,55.88
2023-03-05T05:43:11.823Z,55.53
2023-03-05T05:45:39.331Z,55.33
2023-03-05T05:48:07.078Z,55.34
2023-03-05T05:50:34.114Z,55.39
2023-03-05T05:53:01.129Z,54.71
2023-03-05T05:55:28.255Z,55.11
2023-03-05T05:57:55.224Z,55.20
2023-03-05T06:00:22.545Z,54.85
2023-03-05T06:02:49.654Z,54.61
2023-03-05T06:05:19.652Z,54.28
2023-03-05T06:07:46.726Z,53.56
2023-03-05T06:10:13.983Z,53.06
2023-03-05T06:12:41.097Z,52.71
2023-03-05T06:15:09.472Z,52.64
2023-03-05T06:17:44.899Z,52.16
2023-03-05T06:20:16.311Z,52.41
2023-03-05T06:22:44.284Z,52.20
2023-03-05T06:25:12.474Z,51.88
2023-03-05T06:27:40.312Z,51.84
2023-03-05T06:30:09.053Z,51.45
2023-03-05T06:33:06.459Z,51.34
2023-03-05T06:35:34.036Z,51.28
2023-03-05T06:38:01.081Z,51.90
2023-03-05T06:40:28.051Z,51.82
2023-03-05T06:42:55.300Z,52.27
2023-03-05T06:45:22.296Z,52.44
2023-03-05T06:47:49.495Z,52.72
2023-03-05T06:50:16.602Z,52.69
2023-03-05T06:52:43.692Z,52.70
2023-03-05T06:55:10.814Z,53.22
2023-03-05T06:57:38.075Z,52.47
2023-03-05T07:00:11.910Z,52.95
2023-03-05T07:02:42.345Z,52.84
2023-03-05T07:05:09.750Z,52.45
2023-03-05T07:07:36.760Z,52.79
2023-03-05T07:10:08.013Z,52.73
2023-03-05T07:12:36.484Z,52.61
2023-03-05T07:15:03.690Z,52.80
2023-03-05T07:17:31.244Z,52.27
2023-03-05T07:19:58.141Z,52.18
2023-03-05T07:22:25.142Z,51.93
2023-03-05T07:24:52.263Z,51.88
2023-03-05T07:27:19.188Z,51.43
2023-03-05T07:29:46.171Z,51.35
2023-03-05T07:32:13.224Z,51.00
2023-03-05T07:34:40.315Z,51.06
2023-03-05T07:37:07.346Z,51.12
2023-03-05T07:39:34.486Z,51.35
2023-03-05T07:42:01.528Z,51.94
2023-03-05T07:44:28.844Z,51.78
2023-03-05T07:46:58.465Z,51.98
2023-03-05T07:49:27.884Z,52.09
2023-03-05T07:51:54.798Z,51.90
2023-03-05T07:54:21.970Z,51.58
2023-03-05T07:56:49.106Z,51.32
2023-03-05T07:59:16.118Z,51.54
2023-03-05T08:01:43.417Z,51.13
2023-03-05T08:04:11.165Z,50.92
2023-03-05T08:06:42.305Z,50.64
2023-03-05T08:09:09.565Z,50.66
2023-03-05T08:11:42.615Z,50.95
2023-03-05T08:14:10.560Z,50.87
2023-03-05T08:16:39.409Z,51.24
2023-03-05T08:19:06.691Z,51.33
2023-03-05T08:21:35.902Z,51.29
2023-03-05T08:24:08.439Z,51.33
2023-03-05T08:26:41.271Z,51.52
2023-03-05T08:29:09.787Z,51.47
2023-03-05T08:31:37.846Z,51.17
2023-03-05T08:34:06.659Z,51.32
2023-03-05T08:36:33.917Z,51.88
2023-03-05T08:39:01.112Z,51.75
2023-03-05T08:41:28.171Z,51.58
2023-03-05T08:43:55.551Z,51.62
2023-03-05T08:46:22.592Z,51.43
2023-03-05T08:48:51.857Z,50.87
2023-03-05T08:51:23.987Z,50.56
2023-03-05T08:53:58.155Z,50.04
2023-03-05T08:56:30.243Z,49.41
2023-03-05T08:58:57.768Z,49.06
2023-03-05T09:01:28.081Z,48.98
2023-03-05T09:03:58.663Z,48.14
2023-03-05T09:06:53.214Z,48.38
2023-03-05T09:09:50.398Z,47.77
2023-03-05T09:12:35.081Z,47.62
2023-03-05T09:15:13.736Z,47.44
2023-03-05T09:17:42.206Z,47.47
2023-03-05T09:20:13.210Z,47.14
2023-03-05T09:22:41.205Z,47.39
2023-03-05T09:25:10.015Z,47.00
2023-03-05T09:27:37.693Z,47.07
2023-03-05T09:30:06.464Z,46.76
2023-03-05T09:32:33.617Z,46.73
2023-03-05T09:35:00.696Z,46.53
2023-03-05T09:37:29.552Z,46.73
2023-03-05T09:39:57.707Z,46.94
2023-03-05T09:42:44.802Z,47.00
2023-03-05T09:45:27.320Z,47.11
2023-03-05T09:48:15.636Z,46.95
2023-03-05T09:50:50.764Z,47.00
2023-03-05T09:53:30.937Z,46.81
2023-03-05T09:56:00.554Z,46.92
2023-03-05T09:58:38.926Z,46.77
2023-03-05T10:01:20.705Z,46.49
2023-03-05T10:04:09.508Z,47.00
2023-03-05T10:06:49.226Z,47.01
2023-03-05T10:09:39.094Z,47.18
2023-03-05T10:12:25.440Z,47.21
2023-03-05T10:14:52.807Z,47.58
2023-03-05T10:17:28.556Z,47.77
2023-03-05T10:20:26.330Z,48.03
2023-03-05T10:23:04.795Z,48.46
2023-03-05T10:25:58.559Z,48.48
2023-03-05T10:28:56.014Z,48.87
2023-03-05T10:31:41.297Z,49.10
2023-03-05T10:34:55.260Z,49.41
2023-03-05T10:37:58.923Z,49.61
2023-03-05T10:40:53.139Z,49.91
2023-03-05T10:43:35.000Z,49.84
2023-03-05T10:46:04.740Z,49.88
2023-03-05T10:48:43.376Z,49.93
2023-03-05T10:51:39.726Z,49.76
2023-03-05T10:54:26.220Z,50.23
2023-03-05T10:57:33.197Z,50.42
2023-03-05T11:00:06.619Z,50.31
2023-03-05T11:02:34.717Z,50.81
2023-03-05T11:05:05.629Z,50.42
2023-03-05T11:07:38.346Z,50.29
2023-03-05T11:10:17.826Z,50.05
2023-03-05T11:12:48.211Z,50.00
2023-03-05T11:15:15.201Z,49.94
2023-03-05T11:17:44.823Z,50.22
2023-03-05T11:20:32.129Z,50.06
2023-03-05T11:23:24.160Z,49.52
2023-03-05T11:25:55.713Z,49.15
2023-03-05T11:28:33.739Z,49.06
2023-03-05T11:31:16.325Z,49.17
2023-03-05T11:34:08.560Z,49.55
2023-03-05T11:36:44.197Z,49.11
2023-03-05T11:39:16.934Z,49.13
2023-03-05T11:42:10.944Z,48.94
2023-03-05T11:44:56.044Z,48.66
2023-03-05T11:47:29.131Z,48.41
2023-03-05T11:50:04.796Z,48.23
2023-03-05T11:52:39.605Z,47.80
2023-03-05T11:55:14.935Z,47.53
2023-03-05T11:58:00.653Z,47.54
2023-03-05T12:00:31.569Z,47.42
2023-03-05T12:03:00.826Z,47.54
2023-03-05T12:05:29.128Z,47.75
2023-03-05T12:08:01.369Z,47.86
2023-03-05T12:10:33.847Z,48.33
2023-03-05T12:13:15.934Z,48.68
2023-03-05T12:16:07.291Z,49.17
2023-03-05T12:18:37.600Z,49.65
2023-03-05T12:21:14.442Z,49.75
2023-03-05T12:23:52.105Z,50.33
2023-03-05T12:26:19.185Z,50.97
2023-03-05T12:28:56.426Z,51.24
2023-03-05T12:31:56.252Z,51.59
2023-03-05T12:34:41.899Z,52.47
2023-03-05T12:37:13.493Z,52.36
2023-03-05T12:39:40.468Z,52.37
2023-03-05T12:42:29.188Z,52.68
2023-03-05T12:45:17.063Z,52.47
2023-03-05T12:47:46.224Z,52.50
2023-03-05T12:50:45.463Z,52.85
2023-03-05T12:53:17.180Z,53.23
2023-03-05T12:56:13.817Z,53.46
2023-03-05T12:58:51.300Z,52.74
2023-03-05T13:01:33.243Z,52.79
2023-03-05T13:04:14.860Z,52.49
2023-03-05T13:06:41.914Z,52.03
2023-03-05T13:09:24.697Z,52.14
2023-03-05T13:11:56.604Z,51.71
2023-03-05T13:14:36.827Z,51.71
2023-03-05T13:17:44.571Z,51.95
2023-03-05T13:20:42.918Z,51.68
2023-03-05T13:23:09.840Z,51.15
2023-03-05T13:25:39.311Z,51.50
2023-03-05T13:28:16.448Z,50.79
2023-03-05T13:31:07.125Z,50.66
2023-03-05T13:33:38.159Z,49.97
2023-03-05T13:36:08.682Z,49.92
2023-03-05T13:38:46.645Z,49.50
2023-03-05T13:41:27.411Z,49.89
2023-03-05T13:43:57.491Z,49.80
2023-03-05T13:46:42.151Z,49.62
2023-03-05T13:49:23.593Z,49.98
2023-03-05T13:51:55.452Z,50.08
2023-03-05T13:54:25.604Z,50.29
2023-03-05T13:56:58.889Z,49.95
2023-03-05T13:59:29.209Z,50.23
2023-03-05T14:01:58.535Z,50.25
2023-03-05T14:04:28.862Z,50.43
2023-03-05T14:07:20.957Z,51.00
2023-03-05T14:09:52.709Z,51.01
2023-03-05T14:12:22.833Z,51.59
2023-03-05T14:14:50.912Z,51.93
2023-03-05T14:17:24.573Z,51.97
2023-03-05T14:19:52.499Z,52.67
2023-03-05T14:22:37.706Z,53.63
2023-03-05T14:25:06.931Z,53.52
2023-03-05T14:27:36.366Z,53.82
2023-03-05T14:30:05.081Z,54.31
2023-03-05T14:32:35.228Z,54.23
2023-03-05T14:35:08.367Z,54.52
2023-03-05T14:37:42.323Z,55.27
2023-03-05T14:40:12.691Z,55.36
2023-03-05T14:42:56.932Z,56.42
2023-03-05T14:45:26.928Z,56.10
2023-03-05T14:47:56.055Z,56.58
2023-03-05T14:50:32.809Z,57.72
2023-03-05T14:53:04.427Z,58.36
2023-03-05T14:55:33.264Z,57.56
2023-03-05T14:58:05.077Z,58.22
2023-03-05T15:00:32.327Z,58.17
2023-03-05T15:02:59.410Z,58.49
2023-03-05T15:05:26.438Z,58.80
2023-03-05T15:07:53.612Z,59.32
2023-03-05T15:10:23.616Z,59.38
2023-03-05T15:12:51.553Z,60.05
2023-03-05T15:15:20.207Z,59.83
2023-03-05T15:17:52.080Z,60.76
2023-03-05T15:20:23.882Z,60.71
2023-03-05T15:22:51.000Z,61.08
2023-03-05T15:25:19.726Z,60.81
2023-03-05T15:27:46.816Z,60.51
2023-03-05T15:30:30.191Z,61.63
2023-03-05T15:32:58.439Z,61.69
2023-03-05T15:35:25.787Z,61.04
2023-03-05T15:37:53.146Z,61.20
2023-03-05T15:40:21.355Z,61.32
2023-03-05T15:42:48.980Z,61.47
2023-03-05T15:45:16.578Z,61.66
2023-03-05T15:47:43.691Z,61.72
2023-03-05T15:50:12.345Z,61.81
2023-03-05T15:52:39.348Z,61.94
2023-03-05T15:55:06.876Z,62.18
2023-03-05T15:57:38.477Z,62.23
2023-03-05T16:00:07.423Z,62.17
2023-03-05T16:02:34.903Z,62.16
2023-03-05T16:05:05.150Z,61.15
2023-03-05T16:07:36.719Z,61.95
2023-03-05T16:10:05.261Z,62.25
2023-03-05T16:12:41.237Z,61.95
2023-03-05T16:15:11.068Z,61.96
2023-03-05T16:17:45.133Z,61.38
2023-03-05T16:20:13.764Z,61.96
2023-03-05T16:22:40.750Z,61.54
2023-03-05T16:25:08.304Z,61.81
2023-03-05T16:27:35.580Z,61.70
2023-03-05T16:30:03.782Z,61.47
2023-03-05T16:32:31.777Z,61.62
2023-03-05T16:34:59.080Z,62.13
2023-03-05T16:37:26.635Z,61.81
2023-03-05T16:39:53.640Z,61.55
2023-03-05T16:42:21.286Z,60.79
2023-03-05T16:44:49.996Z,60.88
2023-03-05T16:47:17.190Z,60.90
2023-03-05T16:49:44.213Z,60.74
2023-03-05T16:52:18.678Z,61.49
2023-03-05T16:54:47.130Z,61.95
2023-03-05T16:57:14.990Z,61.24
2023-03-05T16:59:43.751Z,61.68
2023-03-05T17:02:13.390Z,60.96
2023-03-05T17:04:40.757Z,61.34
2023-03-05T17:07:08.947Z,60.86
2023-03-05T17:09:36.482Z,60.62
2023-03-05T17:12:03.955Z,60.96
2023-03-05T17:14:31.154Z,60.78
2023-03-05T17:16:58.207Z,60.52
2023-03-05T17:19:25.276Z,59.92
2023-03-05T17:21:52.774Z,60.45
2023-03-05T17:24:22.350Z,60.51
2023-03-05T17:26:50.282Z,60.01
2023-03-05T17:29:19.268Z,60.42
2023-03-05T17:32:26.531Z,60.74
2023-03-05T17:35:20.881Z,60.52
2023-03-05T17:38:07.938Z,60.68
2023-03-05T17:40:36.878Z,60.25
2023-03-05T17:43:04.290Z,60.25
2023-03-05T17:45:32.555Z,60.35
2023-03-05T17:47:59.759Z,60.45
2023-03-05T17:50:26.949Z,60.63
2023-03-05T17:52:55.426Z,60.60
2023-03-05T17:55:24.985Z,60.57
2023-03-05T17:57:52.852Z,60.87
2023-03-05T18:00:29.235Z,60.36
2023-03-05T18:02:58.332Z,61.01
2023-03-05T18:05:26.424Z,61.03
2023-03-05T18:07:55.775Z,61.19
2023-03-05T18:10:28.926Z,61.28
2023-03-05T18:12:57.003Z,61.33
2023-03-05T18:15:25.889Z,60.88
2023-03-05T18:17:53.741Z,61.39
2023-03-05T18:20:36.400Z,61.25
2023-03-05T18:23:05.441Z,61.50
2023-03-05T18:25:33.060Z,60.95
2023-03-05T18:28:02.798Z,61.58
2023-03-05T18:30:30.705Z,61.18
2023-03-05T18:32:58.548Z,62.09
2023-03-05T18:35:26.218Z,62.29
2023-03-05T18:37:53.473Z,61.69
2023-03-05T18:40:24.088Z,61.76
2023-03-05T18:42:51.954Z,61.81
2023-03-05T18:45:21.099Z,62.14
2023-03-05T18:47:49.254Z,61.64
2023-03-05T18:50:18.934Z,61.96
2023-03-05T18:52:46.572Z,62.58
2023-03-05T18:55:25.423Z,62.04
2023-03-05T18:57:52.831Z,61.84
2023-03-05T19:00:26.408Z,62.01
2023-03-05T19:02:54.783Z,61.58
2023-03-05T19:05:22.380Z,61.72
2023-03-05T19:07:49.930Z,62.20
2023-03-05T19:10:17.973Z,61.70
2023-03-05T19:13:36.008Z,61.77
2023-03-05T19:16:13.151Z,61.67
2023-03-05T19:19:15.034Z,61.56
2023-03-05T19:21:44.113Z,61.85
2023-03-05T19:24:11.621Z,61.58
2023-03-05T19:26:39.674Z,61.81
2023-03-05T19:29:07.862Z,61.44
2023-03-05T19:31:35.511Z,61.45
2023-03-05T19:34:03.554Z,61.83
2023-03-05T19:36:31.697Z,61.63
2023-03-05T19:38:59.041Z,61.79
2023-03-05T19:41:27.987Z,61.30
2023-03-05T19:43:56.065Z,61.45
2023-03-05T19:46:23.816Z,61.01
2023-03-05T19:48:51.184Z,61.87
2023-03-05T19:51:21.310Z,61.62
2023-03-05T19:53:49.329Z,61.39
2023-03-05T19:56:17.771Z,61.23
2023-03-05T19:58:45.986Z,61.31
2023-03-05T20:01:19.555Z,60.90
2023-03-05T20:03:51.147Z,61.29
2023-03-05T20:06:19.549Z,61.63
2023-03-05T20:08:47.473Z,61.23
2023-03-05T20:11:17.281Z,61.64
2023-03-05T20:13:44.603Z,61.30
2023-03-05T20:16:16.202Z,61.32
2023-03-05T20:18:44.088Z,61.42
2023-03-05T20:21:11.385Z,61.30
2023-03-05T20:23:41.441Z,61.30
2023-03-05T20:26:08.384Z,61.30
2023-03-05T20:28:35.755Z,61.46
2023-03-05T20:31:03.162Z,61.32
2023-03-05T20:33:30.253Z,61.53
2023-03-05T20:35:57.310Z,61.12
2023-03-05T20:38:25.769Z,61.43
2023-03-05T20:41:08.211Z,61.10
2023-03-05T20:43:38.335Z,60.94
2023-03-05T20:46:05.484Z,61.04
2023-03-05T20:48:35.388Z,61.19
2023-03-05T20:51:17.333Z,60.99
2023-03-05T20:53:45.058Z,61.09
2023-03-05T20:56:12.188Z,60.71
2023-03-05T20:58:39.270Z,61.29
2023-03-05T21:01:15.887Z,60.95
2023-03-05T21:03:42.984Z,61.09
2023-03-05T21:06:11.135Z,61.07
2023-03-05T21:08:38.166Z,61.51
2023-03-05T21:11:07.600Z,60.89
2023-03-05T21:13:35.222Z,61.30
2023-03-05T21:16:06.746Z,61.37
2023-03-05T21:18:39.120Z,61.07
2023-03-05T21:21:06.802Z,60.94
2023-03-05T21:23:34.431Z,60.95
2023-03-05T21:26:01.552Z,61.16
2023-03-05T21:28:29.650Z,61.06
2023-03-05T21:30:56.822Z,60.92
2023-03-05T21:33:26.793Z,61.44
2023-03-05T21:35:54.685Z,61.28
2023-03-05T21:38:23.325Z,61.15
2023-03-05T21:40:51.893Z,60.97
2023-03-05T21:43:21.858Z,61.09
2023-03-05T21:45:51.084Z,61.10
2023-03-05T21:48:18.277Z,61.09
2023-03-05T21:50:47.797Z,60.93
2023-03-05T21:53:16.761Z,60.40
2023-03-05T21:56:25.484Z,61.11
2023-03-05T21:58:53.562Z,60.90
2023-03-05T22:01:21.416Z,60.52
2023-03-05T22:03:49.481Z,60.84
2023-03-05T22:06:18.067Z,60.62
2023-03-05T22:08:45.304Z,60.73
2023-03-05T22:11:15.346Z,60.82
2023-03-05T22:13:42.652Z,60.99
2023-03-05T22:16:10.224Z,60.64
2023-03-05T22:18:37.632Z,60.76
2023-03-05T22:21:05.327Z,60.64
2023-03-05T22:23:36.999Z,60.24
2023-03-05T22:26:08.001Z,60.86
2023-03-05T22:28:36.665Z,60.97
2023-03-05T22:31:03.870Z,60.67
2023-03-05T22:33:31.599Z,60.84
2023-03-05T22:35:58.777Z,60.81
2023-03-05T22:38:26.391Z,60.75
2023-03-05T22:40:53.702Z,60.79
2023-03-05T22:43:21.185Z,60.72
2023-03-05T22:45:48.346Z,61.04
2023-03-05T22:48:15.801Z,61.02
2023-03-05T22:50:44.482Z,60.92
2023-03-05T22:53:12.703Z,61.44
2023-03-05T22:55:43.147Z,60.95
2023-03-05T22:58:10.341Z,61.29
2023-03-05T23:00:37.688Z,61.86
2023-03-05T23:03:06.535Z,61.43
2023-03-05T23:05:34.897Z,61.61
2023-03-05T23:08:01.889Z,61.33
2023-03-05T23:10:29.568Z,61.16
2023-03-05T23:12:58.657Z,61.14
2023-03-05T23:15:31.734Z,60.95
2023-03-05T23:18:02.063Z,61.78
2023-03-05T23:20:32.173Z,61.45
2023-03-05T23:22:59.879Z,61.34
2023-03-05T23:25:30.389Z,61.54
2023-03-05T23:28:01.098Z,61.34
2023-03-05T23:30:29.239Z,61.27
2023-03-05T23:32:56.169Z,61.58
2023-03-05T23:35:52.048Z,61.38
2023-03-05T23:38:19.962Z,61.30
2023-03-05T23:40:54.104Z,61.19
2023-03-05T23:43:24.744Z,61.18
2023-03-05T23:45:56.846Z,61.10
2023-03-05T23:48:25.442Z,61.13
2023-03-05T23:50:53.107Z,61.31
2023-03-05T23:53:22.990Z,61.15
2023-03-05T23:55:51.158Z,60.93
2023-03-05T23:58:20.439Z,61.26
